createdAt,value
2019-03-29T00:00:14.170Z,9.07
2019-03-29T00:02:44.791Z,8.57
2019-03-29T00:05:16.493Z,7.37
2019-03-29T00:07:46.720Z,8.80
2019-03-29T00:10:20.292Z,8.00
2019-03-29T00:12:50.865Z,8.50
2019-03-29T00:15:22.362Z,8.10
2019-03-29T00:17:56.924Z,8.37
2019-03-29T00:20:28.580Z,8.80
2019-03-29T00:23:03.568Z,9.10
2019-03-29T00:25:37.188Z,9.53
2019-03-29T00:28:12.430Z,10.00
2019-03-29T00:30:42.693Z,10.53
2019-03-29T00:33:14.371Z,8.80
2019-03-29T00:35:44.698Z,8.63
2019-03-29T00:38:15.192Z,7.63
2019-03-29T00:40:46.635Z,8.10
2019-03-29T00:43:20.579Z,8.10
2019-03-29T00:45:50.967Z,8.07
2019-03-29T00:48:22.663Z,7.97
2019-03-29T00:50:52.896Z,8.30
2019-03-29T00:53:24.819Z,7.87
2019-03-29T00:55:56.371Z,7.90
2019-03-29T00:58:26.386Z,8.53
2019-03-29T01:00:56.483Z,8.50
2019-03-29T01:03:27.552Z,7.67
2019-03-29T01:06:00.614Z,7.87
2019-03-29T01:08:30.964Z,7.80
2019-03-29T01:11:02.404Z,8.30
2019-03-29T01:13:33.288Z,8.23
2019-03-29T01:16:05.094Z,8.57
2019-03-29T01:18:35.172Z,8.03
2019-03-29T01:21:05.370Z,7.70
2019-03-29T01:23:36.630Z,8.60
2019-03-29T01:26:06.964Z,7.80
2019-03-29T01:28:38.552Z,8.63
2019-03-29T01:31:08.948Z,8.10
2019-03-29T01:33:39.004Z,8.10
2019-03-29T01:36:10.005Z,8.10
2019-03-29T01:38:41.174Z,7.60
2019-03-29T01:41:14.708Z,8.73
2019-03-29T01:43:45.547Z,7.90
2019-03-29T01:46:17.131Z,8.47
2019-03-29T01:48:48.280Z,7.73
2019-03-29T01:51:22.019Z,8.17
2019-03-29T01:53:57.642Z,8.30
2019-03-29T01:56:32.401Z,8.20
2019-03-29T01:59:03.716Z,8.10
2019-03-29T02:01:37.108Z,8.60
2019-03-29T02:04:08.222Z,7.97
2019-03-29T02:06:38.761Z,8.00
2019-03-29T02:09:08.915Z,8.33
2019-03-29T02:11:38.903Z,8.80
2019-03-29T02:14:09.328Z,8.80
2019-03-29T02:16:39.827Z,8.50
2019-03-29T02:19:10.444Z,8.47
2019-03-29T02:21:40.473Z,7.70
2019-03-29T02:24:10.995Z,8.57
2019-03-29T02:26:41.935Z,7.93
2019-03-29T02:29:12.331Z,9.27
2019-03-29T02:31:43.228Z,9.20
2019-03-29T02:34:16.405Z,9.20
2019-03-29T02:36:46.607Z,9.70
2019-03-29T02:39:18.353Z,9.90
2019-03-29T02:41:48.780Z,9.77
2019-03-29T02:44:18.867Z,9.00
2019-03-29T02:46:49.011Z,9.87
2019-03-29T02:49:19.396Z,9.67
2019-03-29T02:51:49.516Z,9.63
2019-03-29T02:54:22.872Z,9.13
2019-03-29T02:56:56.279Z,10.93
2019-03-29T02:59:26.844Z,9.97
2019-03-29T03:01:57.548Z,9.40
2019-03-29T03:04:28.404Z,10.13
2019-03-29T03:06:59.090Z,9.57
2019-03-29T03:09:30.379Z,9.57
2019-03-29T03:12:01.365Z,9.90
2019-03-29T03:14:34.351Z,10.20
2019-03-29T03:17:07.294Z,10.27
2019-03-29T03:19:37.838Z,10.37
2019-03-29T03:22:08.452Z,9.87
2019-03-29T03:24:38.484Z,10.50
2019-03-29T03:27:08.888Z,10.37
2019-03-29T03:29:40.235Z,10.10
2019-03-29T03:32:10.656Z,10.20
2019-03-29T03:34:41.143Z,10.00
2019-03-29T03:37:14.332Z,10.17
2019-03-29T03:39:44.436Z,9.40
2019-03-29T03:42:14.807Z,10.00
2019-03-29T03:44:44.855Z,9.40
2019-03-29T03:47:15.000Z,9.47
2019-03-29T03:49:45.319Z,10.50
2019-03-29T03:52:15.757Z,10.67
2019-03-29T03:54:45.880Z,9.67
2019-03-29T03:57:17.615Z,10.80
2019-03-29T03:59:48.500Z,10.43
2019-03-29T04:02:19.694Z,11.60
2019-03-29T04:04:50.043Z,11.10
2019-03-29T04:07:23.315Z,11.50
2019-03-29T04:09:54.876Z,10.93
2019-03-29T04:12:25.790Z,11.30
2019-03-29T04:14:57.192Z,11.30
2019-03-29T04:17:27.580Z,11.77
2019-03-29T04:19:57.716Z,11.10
2019-03-29T04:22:29.262Z,10.47
2019-03-29T04:24:59.503Z,11.53
2019-03-29T04:27:30.854Z,12.10
2019-03-29T04:30:02.346Z,10.40
2019-03-29T04:32:32.765Z,11.47
2019-03-29T04:35:04.363Z,11.40
2019-03-29T04:37:34.573Z,12.20
2019-03-29T04:40:09.041Z,11.60
2019-03-29T04:42:40.763Z,14.27
2019-03-29T04:45:11.637Z,13.23
2019-03-29T04:47:41.772Z,12.50
2019-03-29T04:50:12.383Z,13.23
2019-03-29T04:52:42.478Z,13.00
2019-03-29T04:55:13.230Z,12.50
2019-03-29T04:57:43.537Z,12.73
2019-03-29T05:00:16.009Z,12.90
2019-03-29T05:02:46.549Z,12.93
2019-03-29T05:05:16.797Z,12.97
2019-03-29T05:07:46.938Z,12.37
2019-03-29T05:10:22.974Z,12.77
2019-03-29T05:12:53.582Z,12.83
2019-03-29T05:15:29.605Z,12.93
2019-03-29T05:17:59.685Z,11.80
2019-03-29T05:20:29.976Z,11.87
2019-03-29T05:23:00.465Z,12.67
2019-03-29T05:25:31.750Z,11.90
2019-03-29T05:28:01.774Z,12.63
2019-03-29T05:30:32.378Z,11.50
2019-03-29T05:33:02.619Z,13.07
2019-03-29T05:35:32.974Z,11.57
2019-03-29T05:38:03.122Z,13.63
2019-03-29T05:40:35.264Z,12.33
2019-03-29T05:43:05.521Z,12.40
2019-03-29T05:45:36.185Z,13.17
2019-03-29T05:48:06.478Z,12.63
2019-03-29T05:50:37.259Z,13.13
2019-03-29T05:53:07.466Z,14.50
2019-03-29T05:55:37.715Z,14.23
2019-03-29T05:58:08.191Z,12.97
2019-03-29T06:00:38.863Z,14.03
2019-03-29T06:03:10.263Z,13.13
2019-03-29T06:05:41.051Z,12.93
2019-03-29T06:08:14.148Z,13.10
2019-03-29T06:10:49.350Z,14.53
2019-03-29T06:13:18.180Z,14.53
2019-03-29T06:15:48.740Z,14.27
2019-03-29T06:18:19.098Z,13.53
2019-03-29T06:20:49.748Z,14.77
2019-03-29T06:23:19.965Z,13.03
2019-03-29T06:25:50.324Z,13.13
2019-03-29T06:28:22.524Z,12.80
2019-03-29T06:30:54.126Z,13.03
2019-03-29T06:33:25.413Z,14.43
2019-03-29T06:35:58.264Z,15.00
2019-03-29T06:38:29.949Z,14.90
2019-03-29T06:41:05.858Z,16.53
2019-03-29T06:43:36.997Z,17.97
2019-03-29T06:46:12.061Z,18.70
2019-03-29T06:48:43.401Z,21.47
2019-03-29T06:51:17.070Z,19.73
2019-03-29T06:53:52.474Z,22.60
2019-03-29T06:56:22.689Z,20.43
2019-03-29T06:58:54.820Z,20.73
2019-03-29T07:01:26.031Z,19.90
2019-03-29T07:03:57.291Z,21.40
2019-03-29T07:06:30.632Z,20.50
2019-03-29T07:09:03.196Z,22.50
2019-03-29T07:11:35.104Z,23.67
2019-03-29T07:14:07.315Z,21.17
2019-03-29T07:16:38.354Z,23.03
2019-03-29T07:19:08.555Z,22.90
2019-03-29T07:21:39.160Z,22.47
2019-03-29T07:24:09.424Z,24.97
2019-03-29T07:26:39.593Z,22.20
2019-03-29T07:29:11.460Z,23.10
2019-03-29T07:31:41.670Z,23.90
2019-03-29T07:34:14.512Z,25.00
2019-03-29T07:36:45.100Z,23.40
2019-03-29T07:39:15.840Z,23.87
2019-03-29T07:41:47.041Z,25.70
2019-03-29T07:44:17.571Z,23.17
2019-03-29T07:46:48.287Z,25.30
2019-03-29T07:49:18.739Z,25.73
2019-03-29T07:51:49.716Z,21.70
2019-03-29T07:54:21.195Z,25.10
2019-03-29T07:56:53.060Z,24.50
2019-03-29T07:59:25.580Z,24.10
2019-03-29T08:01:58.071Z,24.23
2019-03-29T08:04:28.614Z,24.57
2019-03-29T08:06:59.412Z,22.23
2019-03-29T08:09:29.934Z,23.40
2019-03-29T08:12:00.406Z,22.40
2019-03-29T08:14:31.274Z,24.90
2019-03-29T08:17:01.644Z,21.30
2019-03-29T08:19:32.084Z,21.40
2019-03-29T08:22:02.594Z,23.87
2019-03-29T08:24:33.304Z,22.10
2019-03-29T08:27:03.633Z,20.90
2019-03-29T08:29:33.922Z,22.20
2019-03-29T08:32:04.529Z,23.03
2019-03-29T08:34:36.012Z,22.20
2019-03-29T08:37:06.532Z,21.90
2019-03-29T08:39:36.708Z,23.97
2019-03-29T08:42:07.012Z,20.57
2019-03-29T08:44:43.465Z,23.90
2019-03-29T08:47:13.536Z,23.03
2019-03-29T08:49:43.875Z,19.57
2019-03-29T08:52:13.951Z,20.53
2019-03-29T08:54:44.272Z,19.00
2019-03-29T08:57:14.512Z,18.60
2019-03-29T08:59:44.582Z,20.67
2019-03-29T09:02:14.725Z,24.03
2019-03-29T09:04:46.927Z,21.87
2019-03-29T09:07:18.936Z,19.93
2019-03-29T09:09:50.909Z,18.47
2019-03-29T09:12:23.038Z,17.00
2019-03-29T09:14:53.302Z,15.00
2019-03-29T09:17:23.815Z,12.27
2019-03-29T09:19:54.275Z,10.50
2019-03-29T09:22:24.906Z,10.33
2019-03-29T09:24:55.108Z,9.87
2019-03-29T09:27:26.251Z,10.80
2019-03-29T09:29:57.369Z,10.23
2019-03-29T09:32:28.442Z,9.00
2019-03-29T09:34:58.870Z,9.10
2019-03-29T09:37:32.012Z,8.40
2019-03-29T09:40:03.146Z,10.27
2019-03-29T09:42:33.363Z,9.50
2019-03-29T09:45:04.564Z,9.13
2019-03-29T09:47:40.141Z,8.20
2019-03-29T09:50:10.375Z,9.00
2019-03-29T09:52:39.532Z,9.20
2019-03-29T09:55:10.212Z,8.67
2019-03-29T09:57:41.097Z,8.00
2019-03-29T10:00:20.871Z,7.77
2019-03-29T10:02:44.001Z,7.50
2019-03-29T10:05:14.495Z,9.40
2019-03-29T10:07:44.916Z,9.97
2019-03-29T10:10:15.250Z,9.60
2019-03-29T10:12:48.274Z,9.67
2019-03-29T10:15:18.656Z,10.80
2019-03-29T10:17:49.039Z,10.23
2019-03-29T10:20:20.918Z,10.37
2019-03-29T10:22:53.067Z,10.33
2019-03-29T10:25:26.453Z,10.73
2019-03-29T10:27:58.207Z,11.03
2019-03-29T10:30:46.901Z,10.87
2019-03-29T10:33:19.333Z,9.30
2019-03-29T10:35:52.742Z,9.83
2019-03-29T10:38:23.145Z,10.07
2019-03-29T10:40:55.114Z,9.40
2019-03-29T10:43:28.347Z,9.57
2019-03-29T10:45:58.479Z,9.80
2019-03-29T10:48:28.559Z,9.10
2019-03-29T10:50:58.645Z,7.70
2019-03-29T10:53:29.092Z,7.00
2019-03-29T10:56:02.907Z,7.10
2019-03-29T10:58:33.646Z,6.30
2019-03-29T11:01:05.465Z,7.00
2019-03-29T11:03:35.959Z,6.60
2019-03-29T11:06:06.122Z,7.23
2019-03-29T11:08:36.538Z,7.20
2019-03-29T11:11:06.689Z,6.30
2019-03-29T11:13:36.888Z,6.40
2019-03-29T11:16:07.246Z,6.67
2019-03-29T11:18:38.561Z,6.30
2019-03-29T11:21:08.964Z,6.43
2019-03-29T11:23:40.551Z,5.20
2019-03-29T11:26:11.509Z,6.13
2019-03-29T11:28:42.807Z,6.20
2019-03-29T11:31:13.406Z,6.23
2019-03-29T11:33:43.780Z,6.57
2019-03-29T11:36:15.490Z,6.77
2019-03-29T11:38:46.486Z,5.57
2019-03-29T11:41:19.490Z,5.93
2019-03-29T11:43:50.063Z,5.87
2019-03-29T11:46:25.808Z,6.00
2019-03-29T11:48:56.275Z,5.50
2019-03-29T11:51:26.463Z,6.27
2019-03-29T11:53:56.896Z,5.60
2019-03-29T11:56:32.318Z,6.40
2019-03-29T11:59:03.271Z,5.90
2019-03-29T12:01:33.995Z,6.30
2019-03-29T12:04:04.928Z,6.33
2019-03-29T12:06:35.417Z,5.90
2019-03-29T12:09:08.099Z,5.50
2019-03-29T12:11:39.690Z,5.47
2019-03-29T12:14:10.147Z,5.80
2019-03-29T12:16:41.484Z,5.97
2019-03-29T12:19:13.668Z,6.37
2019-03-29T12:21:45.354Z,6.77
2019-03-29T12:24:18.931Z,6.90
2019-03-29T12:26:49.147Z,7.47
2019-03-29T12:29:19.461Z,6.63
2019-03-29T12:31:50.076Z,6.20
2019-03-29T12:34:21.071Z,6.67
2019-03-29T12:36:52.068Z,7.63
2019-03-29T12:39:23.731Z,6.90
2019-03-29T12:41:55.240Z,7.50
2019-03-29T12:44:25.931Z,7.07
2019-03-29T12:46:56.959Z,7.90
2019-03-29T12:49:28.879Z,7.87
2019-03-29T12:52:02.781Z,7.40
2019-03-29T12:54:33.752Z,7.77
2019-03-29T12:57:06.832Z,7.50
2019-03-29T12:59:37.101Z,8.03
2019-03-29T13:02:07.441Z,8.43
2019-03-29T13:04:39.231Z,7.93
2019-03-29T13:07:09.382Z,7.43
2019-03-29T13:09:40.536Z,8.17
2019-03-29T13:12:11.654Z,7.70
2019-03-29T13:14:42.292Z,8.07
2019-03-29T13:17:12.702Z,8.43
2019-03-29T13:19:43.189Z,8.57
2019-03-29T13:22:15.429Z,7.83
2019-03-29T13:24:45.829Z,8.67
2019-03-29T13:27:16.233Z,8.93
2019-03-29T13:29:46.787Z,7.83
2019-03-29T13:32:18.210Z,7.53
2019-03-29T13:34:51.348Z,7.70
2019-03-29T13:37:28.259Z,8.37
2019-03-29T13:40:08.340Z,8.33
2019-03-29T13:42:39.760Z,9.27
2019-03-29T13:45:10.605Z,8.77
2019-03-29T13:47:40.996Z,7.37
2019-03-29T13:50:15.528Z,8.10
2019-03-29T13:52:45.657Z,8.60
2019-03-29T13:55:16.016Z,8.60
2019-03-29T13:57:47.495Z,8.37
2019-03-29T14:00:23.016Z,7.27
2019-03-29T14:02:52.928Z,7.90
2019-03-29T14:05:27.629Z,8.07
2019-03-29T14:08:01.254Z,7.80
2019-03-29T14:10:31.439Z,8.33
2019-03-29T14:13:02.241Z,7.83
2019-03-29T14:15:32.425Z,7.07
2019-03-29T14:18:03.303Z,6.80
2019-03-29T14:20:37.359Z,6.53
2019-03-29T14:23:07.766Z,7.50
2019-03-29T14:25:38.129Z,7.57
2019-03-29T14:28:09.685Z,6.83
2019-03-29T14:30:40.075Z,8.20
2019-03-29T14:33:10.741Z,7.80
2019-03-29T14:35:41.962Z,7.73
2019-03-29T14:38:14.118Z,7.70
2019-03-29T14:40:46.253Z,7.47
2019-03-29T14:43:17.040Z,8.00
2019-03-29T14:45:48.797Z,8.00
2019-03-29T14:48:25.868Z,7.50
2019-03-29T14:51:12.962Z,8.00
2019-03-29T14:53:47.616Z,8.60
2019-03-29T14:56:18.875Z,6.80
2019-03-29T14:58:54.386Z,7.80
2019-03-29T15:01:24.785Z,7.73
2019-03-29T15:04:01.402Z,6.90
2019-03-29T15:06:32.931Z,7.30
2019-03-29T15:09:06.342Z,6.93
2019-03-29T15:11:37.666Z,7.03
2019-03-29T15:14:08.226Z,7.13
2019-03-29T15:16:40.504Z,8.00
2019-03-29T15:19:12.663Z,6.90
2019-03-29T15:21:45.509Z,7.37
2019-03-29T15:24:16.601Z,6.90
2019-03-29T15:26:50.532Z,7.30
2019-03-29T15:29:22.545Z,7.00
2019-03-29T15:31:52.815Z,6.27
2019-03-29T15:34:25.492Z,7.73
2019-03-29T15:36:56.581Z,7.40
2019-03-29T15:39:27.592Z,7.83
2019-03-29T15:41:57.761Z,7.87
2019-03-29T15:44:28.778Z,6.27
2019-03-29T15:47:00.595Z,7.80
2019-03-29T15:49:30.745Z,7.10
2019-03-29T15:52:05.757Z,7.50
2019-03-29T15:54:36.281Z,7.53
2019-03-29T15:57:07.121Z,7.50
2019-03-29T15:59:44.902Z,7.33
2019-03-29T16:02:15.527Z,6.87
2019-03-29T16:04:47.345Z,7.80
2019-03-29T16:07:19.893Z,7.67
2019-03-29T16:09:59.129Z,7.93
2019-03-29T16:12:29.669Z,7.80
2019-03-29T16:15:00.643Z,7.70
2019-03-29T16:17:36.068Z,7.60
2019-03-29T16:20:11.936Z,7.17
2019-03-29T16:22:42.894Z,6.63
2019-03-29T16:25:17.026Z,7.17
2019-03-29T16:27:50.295Z,7.27
2019-03-29T16:30:22.407Z,6.43
2019-03-29T16:32:55.076Z,7.07
2019-03-29T16:35:25.727Z,6.87
2019-03-29T16:38:04.603Z,7.90
2019-03-29T16:40:36.148Z,7.27
2019-03-29T16:43:09.511Z,6.97
2019-03-29T16:45:48.033Z,6.47
2019-03-29T16:48:17.084Z,7.80
2019-03-29T16:50:48.837Z,7.57
2019-03-29T16:53:19.731Z,8.20
2019-03-29T16:55:50.552Z,7.27
2019-03-29T16:58:25.310Z,8.53
2019-03-29T17:01:05.969Z,8.67
2019-03-29T17:03:40.206Z,8.30
2019-03-29T17:06:16.270Z,9.67
2019-03-29T17:08:47.849Z,9.40
2019-03-29T17:11:18.743Z,9.67
2019-03-29T17:13:50.813Z,10.17
2019-03-29T17:16:30.161Z,8.57
2019-03-29T17:19:01.165Z,9.17
2019-03-29T17:21:31.555Z,8.67
2019-03-29T17:24:04.009Z,9.27
2019-03-29T17:26:34.946Z,9.90
2019-03-29T17:29:06.635Z,9.27
2019-03-29T17:31:37.870Z,9.17
2019-03-29T17:34:09.960Z,9.30
2019-03-29T17:36:43.569Z,9.33
2019-03-29T17:39:15.084Z,9.30
2019-03-29T17:41:45.904Z,8.90
2019-03-29T17:44:19.935Z,10.50
2019-03-29T17:46:50.978Z,8.97
2019-03-29T17:49:23.402Z,9.63
2019-03-29T17:51:55.372Z,9.90
2019-03-29T17:54:27.716Z,9.60
2019-03-29T17:57:00.721Z,9.50
2019-03-29T17:59:31.364Z,9.20
2019-03-29T18:02:09.669Z,8.60
2019-03-29T18:04:39.174Z,9.27
2019-03-29T18:07:09.667Z,9.50
2019-03-29T18:09:40.294Z,10.00
2019-03-29T18:12:11.487Z,8.93
2019-03-29T18:14:45.383Z,9.30
2019-03-29T18:17:16.617Z,9.63
2019-03-29T18:19:49.039Z,10.40
2019-03-29T18:22:24.463Z,9.77
2019-03-29T18:24:55.002Z,10.90
2019-03-29T18:27:26.138Z,13.57
2019-03-29T18:29:59.281Z,11.93
2019-03-29T18:32:32.161Z,10.80
2019-03-29T18:35:11.861Z,12.80
2019-03-29T18:37:42.911Z,11.33
2019-03-29T18:40:27.586Z,12.10
2019-03-29T18:42:59.230Z,10.20
2019-03-29T18:45:30.950Z,12.60
2019-03-29T18:48:04.576Z,12.53
2019-03-29T18:50:40.729Z,12.00
2019-03-29T18:53:12.127Z,12.50
2019-03-29T18:55:47.199Z,13.50
2019-03-29T18:58:19.238Z,13.03
2019-03-29T19:00:55.406Z,12.57
2019-03-29T19:03:25.705Z,13.10
2019-03-29T19:05:56.357Z,13.40
2019-03-29T19:08:28.413Z,13.70
2019-03-29T19:11:12.027Z,12.40
2019-03-29T19:13:44.050Z,13.90
2019-03-29T19:16:15.067Z,13.27
2019-03-29T19:18:48.023Z,15.40
2019-03-29T19:21:21.343Z,15.53
2019-03-29T19:24:19.091Z,13.67
2019-03-29T19:26:49.691Z,15.77
2019-03-29T19:29:20.380Z,13.73
2019-03-29T19:31:51.151Z,15.13
2019-03-29T19:34:22.110Z,16.37
2019-03-29T19:36:53.481Z,17.77
2019-03-29T19:39:25.552Z,17.33
2019-03-29T19:41:55.930Z,16.40
2019-03-29T19:44:28.492Z,17.43
2019-03-29T19:47:12.908Z,16.30
2019-03-29T19:49:35.948Z,15.33
2019-03-29T19:52:12.053Z,17.87
2019-03-29T19:54:45.004Z,18.40
2019-03-29T19:57:16.357Z,20.07
2019-03-29T19:59:52.078Z,18.43
2019-03-29T20:02:22.952Z,16.90
2019-03-29T20:04:57.896Z,17.13
2019-03-29T20:07:29.049Z,16.30
2019-03-29T20:10:01.352Z,16.33
2019-03-29T20:12:39.797Z,15.97
2019-03-29T20:15:14.913Z,16.40
2019-03-29T20:17:45.962Z,15.57
2019-03-29T20:20:24.334Z,17.13
2019-03-29T20:22:58.131Z,17.40
2019-03-29T20:25:29.683Z,17.17
2019-03-29T20:28:01.495Z,17.20
2019-03-29T20:30:33.409Z,17.93
2019-03-29T20:33:05.807Z,16.90
2019-03-29T20:35:36.669Z,17.43
2019-03-29T20:38:08.012Z,17.47
2019-03-29T20:40:40.717Z,17.83
2019-03-29T20:43:12.490Z,18.20
2019-03-29T20:45:42.739Z,16.93
2019-03-29T20:48:13.471Z,16.73
2019-03-29T20:50:43.666Z,16.70
2019-03-29T20:53:15.039Z,15.23
2019-03-29T20:55:45.225Z,15.80
2019-03-29T20:58:20.898Z,15.23
2019-03-29T21:00:51.641Z,15.60
2019-03-29T21:03:22.065Z,14.87
2019-03-29T21:05:53.373Z,13.40
2019-03-29T21:08:24.661Z,14.30
2019-03-29T21:10:56.609Z,13.53
2019-03-29T21:13:27.217Z,13.40
2019-03-29T21:15:59.393Z,12.80
2019-03-29T21:18:30.733Z,12.87
2019-03-29T21:21:04.371Z,11.00
2019-03-29T21:23:38.684Z,12.73
2019-03-29T21:26:10.583Z,11.50
2019-03-29T21:28:41.075Z,11.87
2019-03-29T21:31:20.224Z,12.23
2019-03-29T21:33:50.780Z,11.70
2019-03-29T21:36:23.077Z,11.70
2019-03-29T21:38:56.034Z,10.73
2019-03-29T21:41:27.871Z,10.57
2019-03-29T21:43:59.706Z,10.87
2019-03-29T21:46:31.496Z,11.53
2019-03-29T21:49:04.459Z,11.20
2019-03-29T21:51:38.908Z,10.70
2019-03-29T21:54:10.754Z,10.97
2019-03-29T21:56:43.720Z,10.70
2019-03-29T21:59:18.724Z,10.10
2019-03-29T22:01:50.145Z,11.30
2019-03-29T22:04:20.788Z,11.23
2019-03-29T22:06:51.367Z,10.13
2019-03-29T22:09:36.180Z,10.40
2019-03-29T22:11:56.539Z,10.47
2019-03-29T22:14:28.003Z,9.10
2019-03-29T22:16:58.304Z,9.57
2019-03-29T22:19:31.502Z,9.97
2019-03-29T22:22:03.202Z,9.30
2019-03-29T22:24:37.887Z,9.40
2019-03-29T22:27:11.906Z,9.73
2019-03-29T22:29:42.524Z,9.40
2019-03-29T22:32:18.325Z,8.90
2019-03-29T22:34:48.481Z,9.40
2019-03-29T22:37:20.729Z,9.20
2019-03-29T22:39:51.036Z,8.63
2019-03-29T22:42:21.280Z,9.30
2019-03-29T22:44:56.260Z,9.43
2019-03-29T22:47:28.090Z,9.63
2019-03-29T22:50:03.034Z,9.50
2019-03-29T22:52:35.413Z,9.17
2019-03-29T22:55:07.236Z,8.67
2019-03-29T22:57:37.388Z,9.47
2019-03-29T23:00:37.469Z,10.50
2019-03-29T23:03:08.656Z,10.80
2019-03-29T23:05:45.279Z,9.63
2019-03-29T23:08:16.785Z,9.47
2019-03-29T23:10:47.284Z,9.93
2019-03-29T23:13:18.855Z,9.67
2019-03-29T23:15:49.489Z,10.10
2019-03-29T23:18:23.890Z,9.97
2019-03-29T23:20:55.160Z,9.50
2019-03-29T23:23:26.918Z,10.00
2019-03-29T23:25:58.781Z,9.60
2019-03-29T23:28:29.004Z,10.00
2019-03-29T23:30:59.419Z,9.40
2019-03-29T23:33:31.256Z,9.47
2019-03-29T23:36:02.743Z,9.20
2019-03-29T23:38:36.040Z,9.47
2019-03-29T23:41:07.224Z,10.10
2019-03-29T23:43:37.497Z,10.20
2019-03-29T23:46:07.714Z,9.77
2019-03-29T23:48:37.836Z,8.90
2019-03-29T23:51:08.048Z,10.17
2019-03-29T23:53:39.930Z,10.10
2019-03-29T23:56:11.298Z,9.00
2019-03-29T23:58:41.348Z,10.13
